sensor_id;sensor_type;location;lat;lon;timestamp;temperature;humidity
22578;DHT22;11455;52.390;13.028;2023-02-15T00:01:16;6.00;99.90
22578;DHT22;11455;52.390;13.028;2023-02-15T00:03:41;6.00;99.90
22578;DHT22;11455;52.390;13.028;2023-02-15T00:06:07;6.00;99.90
22578;DHT22;11455;52.390;13.028;2023-02-15T00:08:33;5.90;99.90
22578;DHT22;11455;52.390;13.028;2023-02-15T00:13:30;5.90;99.90
22578;DHT22;11455;52.390;13.028;2023-02-15T00:16:02;5.90;99.90
22578;DHT22;11455;52.390;13.028;2023-02-15T00:18:28;5.80;99.90
22578;DHT22;11455;52.390;13.028;2023-02-15T00:20:53;5.80;99.90
22578;DHT22;11455;52.390;13.028;2023-02-15T00:23:19;5.70;99.90
22578;DHT22;11455;52.390;13.028;2023-02-15T00:25:45;5.70;99.90
22578;DHT22;11455;52.390;13.028;2023-02-15T00:28:10;5.70;99.90
22578;DHT22;11455;52.390;13.028;2023-02-15T00:30:36;5.70;99.90
22578;DHT22;11455;52.390;13.028;2023-02-15T00:33:01;5.60;99.90
22578;DHT22;11455;52.390;13.028;2023-02-15T00:35:27;5.60;99.90
22578;DHT22;11455;52.390;13.028;2023-02-15T00:37:53;5.50;99.90
22578;DHT22;11455;52.390;13.028;2023-02-15T00:40:18;5.50;99.90
22578;DHT22;11455;52.390;13.028;2023-02-15T00:42:44;5.50;99.90
22578;DHT22;11455;52.390;13.028;2023-02-15T00:45:10;5.40;99.90
22578;DHT22;11455;52.390;13.028;2023-02-15T00:47:35;5.50;99.90
22578;DHT22;11455;52.390;13.028;2023-02-15T00:50:01;5.50;99.90
22578;DHT22;11455;52.390;13.028;2023-02-15T00:52:28;5.50;99.90
22578;DHT22;11455;52.390;13.028;2023-02-15T00:54:55;5.50;99.90
22578;DHT22;11455;52.390;13.028;2023-02-15T00:57:20;5.50;99.90
22578;DHT22;11455;52.390;13.028;2023-02-15T00:59:46;5.50;99.90
22578;DHT22;11455;52.390;13.028;2023-02-15T01:02:12;5.60;99.90
22578;DHT22;11455;52.390;13.028;2023-02-15T01:04:37;5.60;99.90
22578;DHT22;11455;52.390;13.028;2023-02-15T01:07:03;5.60;99.90
22578;DHT22;11455;52.390;13.028;2023-02-15T01:09:32;5.50;99.90
22578;DHT22;11455;52.390;13.028;2023-02-15T01:11:57;5.50;99.90
22578;DHT22;11455;52.390;13.028;2023-02-15T01:14:25;5.60;99.90
22578;DHT22;11455;52.390;13.028;2023-02-15T01:16:51;5.50;99.90
22578;DHT22;11455;52.390;13.028;2023-02-15T01:19:16;5.50;99.90
22578;DHT22;11455;52.390;13.028;2023-02-15T01:21:42;5.50;99.90
22578;DHT22;11455;52.390;13.028;2023-02-15T01:24:12;5.40;99.90
22578;DHT22;11455;52.390;13.028;2023-02-15T01:26:38;5.50;99.90
22578;DHT22;11455;52.390;13.028;2023-02-15T01:29:04;5.50;99.90
22578;DHT22;11455;52.390;13.028;2023-02-15T01:31:30;5.50;99.90
22578;DHT22;11455;52.390;13.028;2023-02-15T01:33:56;5.50;99.90
22578;DHT22;11455;52.390;13.028;2023-02-15T01:36:21;5.50;99.90
22578;DHT22;11455;52.390;13.028;2023-02-15T01:38:47;5.60;99.90
22578;DHT22;11455;52.390;13.028;2023-02-15T01:41:13;5.60;99.90
22578;DHT22;11455;52.390;13.028;2023-02-15T01:46:22;5.50;99.90
22578;DHT22;11455;52.390;13.028;2023-02-15T01:49:11;5.50;99.90
22578;DHT22;11455;52.390;13.028;2023-02-15T01:51:36;5.50;99.90
22578;DHT22;11455;52.390;13.028;2023-02-15T01:54:03;5.50;99.90
22578;DHT22;11455;52.390;13.028;2023-02-15T01:56:35;5.50;99.90
22578;DHT22;11455;52.390;13.028;2023-02-15T01:59:03;5.50;99.90
22578;DHT22;11455;52.390;13.028;2023-02-15T02:01:30;5.50;99.90
22578;DHT22;11455;52.390;13.028;2023-02-15T02:06:23;5.50;99.90
22578;DHT22;11455;52.390;13.028;2023-02-15T02:08:49;5.40;99.90
22578;DHT22;11455;52.390;13.028;2023-02-15T02:11:14;5.40;99.90
22578;DHT22;11455;52.390;13.028;2023-02-15T02:13:40;5.40;99.90
22578;DHT22;11455;52.390;13.028;2023-02-15T02:23:51;5.30;99.90
22578;DHT22;11455;52.390;13.028;2023-02-15T02:26:48;5.30;99.90
22578;DHT22;11455;52.390;13.028;2023-02-15T02:34:29;5.30;99.90
22578;DHT22;11455;52.390;13.028;2023-02-15T02:36:58;5.30;99.90
22578;DHT22;11455;52.390;13.028;2023-02-15T02:42:09;5.20;99.90
22578;DHT22;11455;52.390;13.028;2023-02-15T02:47:10;5.10;99.90
22578;DHT22;11455;52.390;13.028;2023-02-15T02:49:41;5.10;99.90
22578;DHT22;11455;52.390;13.028;2023-02-15T02:52:33;5.10;99.90
22578;DHT22;11455;52.390;13.028;2023-02-15T02:54:52;5.10;99.90
22578;DHT22;11455;52.390;13.028;2023-02-15T02:57:19;5.10;99.90
22578;DHT22;11455;52.390;13.028;2023-02-15T02:59:45;5.10;99.90
22578;DHT22;11455;52.390;13.028;2023-02-15T03:02:31;5.10;99.90
22578;DHT22;11455;52.390;13.028;2023-02-15T03:05:00;5.10;99.90
22578;DHT22;11455;52.390;13.028;2023-02-15T03:07:29;5.10;99.90
22578;DHT22;11455;52.390;13.028;2023-02-15T03:09:57;5.10;99.90
22578;DHT22;11455;52.390;13.028;2023-02-15T03:12:24;5.20;99.90
22578;DHT22;11455;52.390;13.028;2023-02-15T03:14:54;5.10;99.90
22578;DHT22;11455;52.390;13.028;2023-02-15T03:17:21;5.20;99.90
22578;DHT22;11455;52.390;13.028;2023-02-15T03:19:48;5.20;99.90
22578;DHT22;11455;52.390;13.028;2023-02-15T03:22:20;5.20;99.90
22578;DHT22;11455;52.390;13.028;2023-02-15T03:24:48;5.10;99.90
22578;DHT22;11455;52.390;13.028;2023-02-15T03:27:17;5.20;99.90
22578;DHT22;11455;52.390;13.028;2023-02-15T03:29:48;5.20;99.90
22578;DHT22;11455;52.390;13.028;2023-02-15T03:32:15;5.30;99.90
22578;DHT22;11455;52.390;13.028;2023-02-15T03:34:42;5.30;99.90
22578;DHT22;11455;52.390;13.028;2023-02-15T03:42:25;5.40;99.90
22578;DHT22;11455;52.390;13.028;2023-02-15T03:44:59;5.40;99.90
22578;DHT22;11455;52.390;13.028;2023-02-15T03:47:31;5.40;99.90
22578;DHT22;11455;52.390;13.028;2023-02-15T03:50:00;5.40;99.90
22578;DHT22;11455;52.390;13.028;2023-02-15T03:52:27;5.40;99.90
22578;DHT22;11455;52.390;13.028;2023-02-15T03:54:53;5.40;99.90
22578;DHT22;11455;52.390;13.028;2023-02-15T03:57:24;5.40;99.90
22578;DHT22;11455;52.390;13.028;2023-02-15T04:03:12;5.40;99.90
22578;DHT22;11455;52.390;13.028;2023-02-15T04:05:43;5.50;99.90
22578;DHT22;11455;52.390;13.028;2023-02-15T04:08:09;5.40;99.90
22578;DHT22;11455;52.390;13.028;2023-02-15T04:10:35;5.40;99.90
22578;DHT22;11455;52.390;13.028;2023-02-15T04:13:19;5.40;99.90
22578;DHT22;11455;52.390;13.028;2023-02-15T04:15:45;5.40;99.90
22578;DHT22;11455;52.390;13.028;2023-02-15T04:18:41;5.40;99.90
22578;DHT22;11455;52.390;13.028;2023-02-15T04:21:26;5.30;99.90
22578;DHT22;11455;52.390;13.028;2023-02-15T04:24:13;5.30;99.90
22578;DHT22;11455;52.390;13.028;2023-02-15T04:26:57;5.30;99.90
22578;DHT22;11455;52.390;13.028;2023-02-15T04:29:24;5.30;99.90
22578;DHT22;11455;52.390;13.028;2023-02-15T04:31:50;5.30;99.90
22578;DHT22;11455;52.390;13.028;2023-02-15T04:34:16;5.30;99.90
22578;DHT22;11455;52.390;13.028;2023-02-15T04:36:42;5.30;99.90
22578;DHT22;11455;52.390;13.028;2023-02-15T04:39:07;5.30;99.90
22578;DHT22;11455;52.390;13.028;2023-02-15T04:41:33;5.30;99.90
22578;DHT22;11455;52.390;13.028;2023-02-15T04:43:59;5.30;99.90
22578;DHT22;11455;52.390;13.028;2023-02-15T04:46:26;5.30;99.90
22578;DHT22;11455;52.390;13.028;2023-02-15T04:48:52;5.30;99.90
22578;DHT22;11455;52.390;13.028;2023-02-15T04:51:17;5.30;99.90
22578;DHT22;11455;52.390;13.028;2023-02-15T04:53:43;5.30;99.90
22578;DHT22;11455;52.390;13.028;2023-02-15T04:56:09;5.30;99.90
22578;DHT22;11455;52.390;13.028;2023-02-15T04:58:34;5.20;99.90
22578;DHT22;11455;52.390;13.028;2023-02-15T05:01:02;5.20;99.90
22578;DHT22;11455;52.390;13.028;2023-02-15T05:03:28;5.20;99.90
22578;DHT22;11455;52.390;13.028;2023-02-15T05:05:53;5.20;99.90
22578;DHT22;11455;52.390;13.028;2023-02-15T05:08:19;5.10;99.90
22578;DHT22;11455;52.390;13.028;2023-02-15T05:10:47;5.10;99.90
22578;DHT22;11455;52.390;13.028;2023-02-15T05:13:12;5.10;99.90
22578;DHT22;11455;52.390;13.028;2023-02-15T05:15:38;5.00;99.90
22578;DHT22;11455;52.390;13.028;2023-02-15T05:18:04;5.00;99.90
22578;DHT22;11455;52.390;13.028;2023-02-15T05:20:31;5.00;99.90
22578;DHT22;11455;52.390;13.028;2023-02-15T05:22:56;4.90;99.90
22578;DHT22;11455;52.390;13.028;2023-02-15T05:25:22;4.90;99.90
22578;DHT22;11455;52.390;13.028;2023-02-15T05:28:08;4.90;99.90
22578;DHT22;11455;52.390;13.028;2023-02-15T05:30:50;4.90;99.90
22578;DHT22;11455;52.390;13.028;2023-02-15T05:33:16;4.90;99.90
22578;DHT22;11455;52.390;13.028;2023-02-15T05:35:42;4.90;99.90
22578;DHT22;11455;52.390;13.028;2023-02-15T05:38:08;4.90;99.90
22578;DHT22;11455;52.390;13.028;2023-02-15T05:40:33;4.90;99.90
22578;DHT22;11455;52.390;13.028;2023-02-15T05:42:59;4.90;99.90
22578;DHT22;11455;52.390;13.028;2023-02-15T05:45:25;4.80;99.90
22578;DHT22;11455;52.390;13.028;2023-02-15T05:47:50;4.80;99.90
22578;DHT22;11455;52.390;13.028;2023-02-15T05:50:16;4.80;99.90
22578;DHT22;11455;52.390;13.028;2023-02-15T05:52:42;4.80;99.90
22578;DHT22;11455;52.390;13.028;2023-02-15T05:55:08;4.80;99.90
22578;DHT22;11455;52.390;13.028;2023-02-15T05:57:34;4.80;99.90
22578;DHT22;11455;52.390;13.028;2023-02-15T06:00:00;4.70;99.90
22578;DHT22;11455;52.390;13.028;2023-02-15T06:02:37;4.70;99.90
22578;DHT22;11455;52.390;13.028;2023-02-15T06:05:03;4.70;99.90
22578;DHT22;11455;52.390;13.028;2023-02-15T06:07:29;4.70;99.90
22578;DHT22;11455;52.390;13.028;2023-02-15T06:09:54;4.80;99.90
22578;DHT22;11455;52.390;13.028;2023-02-15T06:12:20;4.80;99.90
22578;DHT22;11455;52.390;13.028;2023-02-15T06:14:46;4.80;99.90
22578;DHT22;11455;52.390;13.028;2023-02-15T06:17:11;4.80;99.90
22578;DHT22;11455;52.390;13.028;2023-02-15T06:19:37;4.90;99.90
22578;DHT22;11455;52.390;13.028;2023-02-15T06:22:02;4.90;99.90
22578;DHT22;11455;52.390;13.028;2023-02-15T06:24:28;4.90;99.90
22578;DHT22;11455;52.390;13.028;2023-02-15T06:26:54;4.90;99.90
22578;DHT22;11455;52.390;13.028;2023-02-15T06:29:19;4.80;99.90
22578;DHT22;11455;52.390;13.028;2023-02-15T06:31:45;4.80;99.90
22578;DHT22;11455;52.390;13.028;2023-02-15T06:34:11;4.70;99.90
22578;DHT22;11455;52.390;13.028;2023-02-15T06:36:36;4.70;99.90
22578;DHT22;11455;52.390;13.028;2023-02-15T06:39:02;4.70;99.90
22578;DHT22;11455;52.390;13.028;2023-02-15T06:41:28;4.70;99.90
22578;DHT22;11455;52.390;13.028;2023-02-15T06:43:54;4.80;99.90
22578;DHT22;11455;52.390;13.028;2023-02-15T06:46:19;4.80;99.90
22578;DHT22;11455;52.390;13.028;2023-02-15T06:48:50;4.70;99.90
22578;DHT22;11455;52.390;13.028;2023-02-15T06:51:15;4.70;99.90
22578;DHT22;11455;52.390;13.028;2023-02-15T06:53:41;4.70;99.90
22578;DHT22;11455;52.390;13.028;2023-02-15T06:56:08;4.70;99.90
22578;DHT22;11455;52.390;13.028;2023-02-15T06:58:35;4.70;99.90
22578;DHT22;11455;52.390;13.028;2023-02-15T07:01:01;4.70;99.90
22578;DHT22;11455;52.390;13.028;2023-02-15T07:03:26;4.70;99.90
22578;DHT22;11455;52.390;13.028;2023-02-15T07:05:56;4.80;99.90
22578;DHT22;11455;52.390;13.028;2023-02-15T07:08:24;4.80;99.90
22578;DHT22;11455;52.390;13.028;2023-02-15T07:10:50;4.80;99.90
22578;DHT22;11455;52.390;13.028;2023-02-15T07:13:16;4.70;99.90
22578;DHT22;11455;52.390;13.028;2023-02-15T07:15:42;4.80;99.90
22578;DHT22;11455;52.390;13.028;2023-02-15T07:18:08;4.70;99.90
22578;DHT22;11455;52.390;13.028;2023-02-15T07:20:34;4.80;99.90
22578;DHT22;11455;52.390;13.028;2023-02-15T07:23:01;4.80;99.90
22578;DHT22;11455;52.390;13.028;2023-02-15T07:25:28;4.80;99.90
22578;DHT22;11455;52.390;13.028;2023-02-15T07:27:57;4.70;99.90
22578;DHT22;11455;52.390;13.028;2023-02-15T07:30:23;4.70;99.90
22578;DHT22;11455;52.390;13.028;2023-02-15T07:32:49;4.80;99.90
22578;DHT22;11455;52.390;13.028;2023-02-15T07:35:33;4.80;99.90
22578;DHT22;11455;52.390;13.028;2023-02-15T07:37:59;4.80;99.90
22578;DHT22;11455;52.390;13.028;2023-02-15T07:40:25;4.80;99.90
22578;DHT22;11455;52.390;13.028;2023-02-15T07:42:51;4.80;99.90
22578;DHT22;11455;52.390;13.028;2023-02-15T07:45:18;4.80;99.90
22578;DHT22;11455;52.390;13.028;2023-02-15T07:47:44;4.80;99.90
22578;DHT22;11455;52.390;13.028;2023-02-15T07:50:09;4.80;99.90
22578;DHT22;11455;52.390;13.028;2023-02-15T07:52:35;4.80;99.90
22578;DHT22;11455;52.390;13.028;2023-02-15T07:55:00;4.80;99.90
22578;DHT22;11455;52.390;13.028;2023-02-15T07:57:26;4.80;99.90
22578;DHT22;11455;52.390;13.028;2023-02-15T07:59:52;4.90;99.90
22578;DHT22;11455;52.390;13.028;2023-02-15T08:02:17;4.90;99.90
22578;DHT22;11455;52.390;13.028;2023-02-15T08:04:43;4.90;99.90
22578;DHT22;11455;52.390;13.028;2023-02-15T08:07:08;4.90;99.90
22578;DHT22;11455;52.390;13.028;2023-02-15T08:09:34;4.90;99.90
22578;DHT22;11455;52.390;13.028;2023-02-15T08:12:00;4.90;99.90
22578;DHT22;11455;52.390;13.028;2023-02-15T08:14:26;4.90;99.90
22578;DHT22;11455;52.390;13.028;2023-02-15T08:16:53;4.90;99.90
22578;DHT22;11455;52.390;13.028;2023-02-15T08:19:25;4.90;99.90
22578;DHT22;11455;52.390;13.028;2023-02-15T08:21:55;4.90;99.90
22578;DHT22;11455;52.390;13.028;2023-02-15T08:24:25;4.80;99.90
22578;DHT22;11455;52.390;13.028;2023-02-15T08:26:51;4.80;99.90
22578;DHT22;11455;52.390;13.028;2023-02-15T08:29:18;4.80;99.90
22578;DHT22;11455;52.390;13.028;2023-02-15T08:31:44;4.80;99.90
22578;DHT22;11455;52.390;13.028;2023-02-15T08:34:11;4.80;99.90
22578;DHT22;11455;52.390;13.028;2023-02-15T08:36:37;4.80;99.90
22578;DHT22;11455;52.390;13.028;2023-02-15T08:39:03;4.90;99.90
22578;DHT22;11455;52.390;13.028;2023-02-15T08:41:30;4.90;99.90
22578;DHT22;11455;52.390;13.028;2023-02-15T08:43:57;4.90;99.90
22578;DHT22;11455;52.390;13.028;2023-02-15T08:46:24;4.90;99.90
22578;DHT22;11455;52.390;13.028;2023-02-15T08:48:51;4.80;99.90
22578;DHT22;11455;52.390;13.028;2023-02-15T08:51:21;4.90;99.90
22578;DHT22;11455;52.390;13.028;2023-02-15T08:53:49;4.90;99.90
22578;DHT22;11455;52.390;13.028;2023-02-15T08:56:15;4.90;99.90
22578;DHT22;11455;52.390;13.028;2023-02-15T08:58:41;4.90;99.90
22578;DHT22;11455;52.390;13.028;2023-02-15T09:01:10;4.90;99.90
22578;DHT22;11455;52.390;13.028;2023-02-15T09:03:37;5.00;99.90
22578;DHT22;11455;52.390;13.028;2023-02-15T09:06:03;5.00;99.90
22578;DHT22;11455;52.390;13.028;2023-02-15T09:08:29;5.10;99.90
22578;DHT22;11455;52.390;13.028;2023-02-15T09:11:03;5.10;99.90
22578;DHT22;11455;52.390;13.028;2023-02-15T09:13:29;5.20;99.90
22578;DHT22;11455;52.390;13.028;2023-02-15T09:15:59;5.20;99.90
22578;DHT22;11455;52.390;13.028;2023-02-15T09:18:24;5.20;99.90
22578;DHT22;11455;52.390;13.028;2023-02-15T09:20:50;5.20;99.90
22578;DHT22;11455;52.390;13.028;2023-02-15T09:23:16;5.20;99.90
22578;DHT22;11455;52.390;13.028;2023-02-15T09:25:41;5.20;99.90
22578;DHT22;11455;52.390;13.028;2023-02-15T09:28:08;5.30;99.90
22578;DHT22;11455;52.390;13.028;2023-02-15T09:30:33;5.30;99.90
22578;DHT22;11455;52.390;13.028;2023-02-15T09:32:59;5.30;99.90
22578;DHT22;11455;52.390;13.028;2023-02-15T09:35:25;5.30;99.90
22578;DHT22;11455;52.390;13.028;2023-02-15T09:37:51;5.40;99.90
22578;DHT22;11455;52.390;13.028;2023-02-15T09:40:17;5.40;99.90
22578;DHT22;11455;52.390;13.028;2023-02-15T09:42:46;5.40;99.90
22578;DHT22;11455;52.390;13.028;2023-02-15T09:45:38;5.50;99.90
22578;DHT22;11455;52.390;13.028;2023-02-15T09:50:50;5.60;99.90
22578;DHT22;11455;52.390;13.028;2023-02-15T10:05:47;5.80;99.90
22578;DHT22;11455;52.390;13.028;2023-02-15T10:11:05;6.10;99.90
22578;DHT22;11455;52.390;13.028;2023-02-15T10:14:03;6.10;99.90
22578;DHT22;11455;52.390;13.028;2023-02-15T10:16:41;6.20;99.90
22578;DHT22;11455;52.390;13.028;2023-02-15T10:21:47;6.30;99.90
22578;DHT22;11455;52.390;13.028;2023-02-15T10:27:04;6.40;99.90
22578;DHT22;11455;52.390;13.028;2023-02-15T10:29:37;6.50;99.90
22578;DHT22;11455;52.390;13.028;2023-02-15T10:34:39;6.60;99.90
22578;DHT22;11455;52.390;13.028;2023-02-15T10:39:40;6.70;99.90
22578;DHT22;11455;52.390;13.028;2023-02-15T10:44:46;6.80;99.90
22578;DHT22;11455;52.390;13.028;2023-02-15T10:50:16;6.90;99.90
22578;DHT22;11455;52.390;13.028;2023-02-15T11:07:53;7.20;99.90
22578;DHT22;11455;52.390;13.028;2023-02-15T11:10:26;7.30;99.90
22578;DHT22;11455;52.390;13.028;2023-02-15T11:12:53;7.30;99.90
22578;DHT22;11455;52.390;13.028;2023-02-15T11:15:29;7.40;99.90
22578;DHT22;11455;52.390;13.028;2023-02-15T11:18:00;7.40;99.90
22578;DHT22;11455;52.390;13.028;2023-02-15T11:20:33;7.50;99.90
22578;DHT22;11455;52.390;13.028;2023-02-15T11:23:01;7.60;99.90
22578;DHT22;11455;52.390;13.028;2023-02-15T11:25:30;7.60;99.90
22578;DHT22;11455;52.390;13.028;2023-02-15T11:27:56;7.70;99.90
22578;DHT22;11455;52.390;13.028;2023-02-15T11:30:23;7.70;99.90
22578;DHT22;11455;52.390;13.028;2023-02-15T11:32:56;7.80;99.90
22578;DHT22;11455;52.390;13.028;2023-02-15T11:35:27;7.90;99.90
22578;DHT22;11455;52.390;13.028;2023-02-15T11:38:01;8.00;99.90
22578;DHT22;11455;52.390;13.028;2023-02-15T11:40:31;8.20;99.90
22578;DHT22;11455;52.390;13.028;2023-02-15T11:42:58;8.30;99.90
22578;DHT22;11455;52.390;13.028;2023-02-15T11:45:30;8.40;99.90
22578;DHT22;11455;52.390;13.028;2023-02-15T11:47:56;8.40;99.90
22578;DHT22;11455;52.390;13.028;2023-02-15T11:50:23;8.50;99.90
22578;DHT22;11455;52.390;13.028;2023-02-15T11:52:50;8.70;99.90
22578;DHT22;11455;52.390;13.028;2023-02-15T11:55:19;8.80;99.90
22578;DHT22;11455;52.390;13.028;2023-02-15T11:57:48;8.90;99.90
22578;DHT22;11455;52.390;13.028;2023-02-15T12:00:20;9.10;89.60
22578;DHT22;11455;52.390;13.028;2023-02-15T12:02:50;9.20;71.40
22578;DHT22;11455;52.390;13.028;2023-02-15T12:05:17;9.30;75.70
22578;DHT22;11455;52.390;13.028;2023-02-15T12:07:46;9.40;48.00
22578;DHT22;11455;52.390;13.028;2023-02-15T12:12:45;9.70;27.70
22578;DHT22;11455;52.390;13.028;2023-02-15T12:15:12;9.70;28.10
22578;DHT22;11455;52.390;13.028;2023-02-15T12:17:39;9.90;12.10
22578;DHT22;11455;52.390;13.028;2023-02-15T12:22:45;10.10;1.00
22578;DHT22;11455;52.390;13.028;2023-02-15T12:27:56;10.20;1.00
22578;DHT22;11455;52.390;13.028;2023-02-15T12:30:23;10.30;1.00
22578;DHT22;11455;52.390;13.028;2023-02-15T12:32:51;10.40;1.00
22578;DHT22;11455;52.390;13.028;2023-02-15T12:35:21;10.50;1.00
22578;DHT22;11455;52.390;13.028;2023-02-15T12:37:56;10.70;1.00
22578;DHT22;11455;52.390;13.028;2023-02-15T12:40:26;10.80;1.00
22578;DHT22;11455;52.390;13.028;2023-02-15T12:42:53;10.90;1.00
22578;DHT22;11455;52.390;13.028;2023-02-15T12:45:32;11.00;1.00
22578;DHT22;11455;52.390;13.028;2023-02-15T12:48:14;11.10;1.00
22578;DHT22;11455;52.390;13.028;2023-02-15T12:50:47;11.20;1.00
22578;DHT22;11455;52.390;13.028;2023-02-15T12:53:17;11.20;1.00
22578;DHT22;11455;52.390;13.028;2023-02-15T12:58:18;11.50;1.00
22578;DHT22;11455;52.390;13.028;2023-02-15T13:00:44;11.60;1.00
22578;DHT22;11455;52.390;13.028;2023-02-15T13:03:18;11.70;1.00
22578;DHT22;11455;52.390;13.028;2023-02-15T13:05:44;11.80;1.00
22578;DHT22;11455;52.390;13.028;2023-02-15T13:10:39;12.10;1.00
22578;DHT22;11455;52.390;13.028;2023-02-15T13:13:09;12.20;1.00
22578;DHT22;11455;52.390;13.028;2023-02-15T13:15:36;12.20;1.00
22578;DHT22;11455;52.390;13.028;2023-02-15T13:18:03;12.20;1.00
22578;DHT22;11455;52.390;13.028;2023-02-15T13:20:29;12.30;1.00
22578;DHT22;11455;52.390;13.028;2023-02-15T13:23:03;12.40;1.00
22578;DHT22;11455;52.390;13.028;2023-02-15T13:25:32;12.40;1.00
22578;DHT22;11455;52.390;13.028;2023-02-15T13:28:02;12.50;1.00
22578;DHT22;11455;52.390;13.028;2023-02-15T13:30:30;12.60;1.00
22578;DHT22;11455;52.390;13.028;2023-02-15T13:32:59;12.60;1.00
22578;DHT22;11455;52.390;13.028;2023-02-15T13:35:27;12.80;1.00
22578;DHT22;11455;52.390;13.028;2023-02-15T13:40:39;12.90;1.00
22578;DHT22;11455;52.390;13.028;2023-02-15T13:48:26;13.00;1.00
22578;DHT22;11455;52.390;13.028;2023-02-15T13:53:31;13.10;1.00
22578;DHT22;11455;52.390;13.028;2023-02-15T13:56:02;13.20;1.00
22578;DHT22;11455;52.390;13.028;2023-02-15T14:08:32;13.40;1.00
22578;DHT22;11455;52.390;13.028;2023-02-15T14:11:06;13.40;1.00
22578;DHT22;11455;52.390;13.028;2023-02-15T14:16:20;13.40;1.00
22578;DHT22;11455;52.390;13.028;2023-02-15T14:18:48;13.40;1.00
22578;DHT22;11455;52.390;13.028;2023-02-15T14:31:43;13.60;1.00
22578;DHT22;11455;52.390;13.028;2023-02-15T14:34:23;13.60;1.00
22578;DHT22;11455;52.390;13.028;2023-02-15T14:36:50;13.70;1.00
22578;DHT22;11455;52.390;13.028;2023-02-15T14:44:43;13.50;1.00
22578;DHT22;11455;52.390;13.028;2023-02-15T14:47:13;13.30;1.00
22578;DHT22;11455;52.390;13.028;2023-02-15T14:49:43;13.30;1.00
22578;DHT22;11455;52.390;13.028;2023-02-15T14:52:09;13.30;1.00
22578;DHT22;11455;52.390;13.028;2023-02-15T15:04:38;13.30;1.00
22578;DHT22;11455;52.390;13.028;2023-02-15T15:07:24;13.30;1.00
22578;DHT22;11455;52.390;13.028;2023-02-15T15:10:23;13.20;1.00
22578;DHT22;11455;52.390;13.028;2023-02-15T15:12:55;13.10;1.00
22578;DHT22;11455;52.390;13.028;2023-02-15T15:18:09;13.10;1.00
22578;DHT22;11455;52.390;13.028;2023-02-15T15:30:57;12.60;1.00
22578;DHT22;11455;52.390;13.028;2023-02-15T15:33:42;12.50;1.00
22578;DHT22;11455;52.390;13.028;2023-02-15T15:36:35;12.40;1.00
22578;DHT22;11455;52.390;13.028;2023-02-15T15:39:21;12.30;1.00
22578;DHT22;11455;52.390;13.028;2023-02-15T15:42:18;12.30;1.00
22578;DHT22;11455;52.390;13.028;2023-02-15T15:49:48;12.00;1.00
22578;DHT22;11455;52.390;13.028;2023-02-15T15:52:15;12.00;1.00
22578;DHT22;11455;52.390;13.028;2023-02-15T15:54:41;12.00;1.00
22578;DHT22;11455;52.390;13.028;2023-02-15T15:57:12;11.90;1.00
22578;DHT22;11455;52.390;13.028;2023-02-15T15:59:43;11.90;1.00
22578;DHT22;11455;52.390;13.028;2023-02-15T16:02:16;11.80;1.00
22578;DHT22;11455;52.390;13.028;2023-02-15T16:04:42;11.70;1.00
22578;DHT22;11455;52.390;13.028;2023-02-15T16:12:24;11.70;1.00
22578;DHT22;11455;52.390;13.028;2023-02-15T16:14:51;11.60;1.00
22578;DHT22;11455;52.390;13.028;2023-02-15T16:17:25;11.60;1.00
22578;DHT22;11455;52.390;13.028;2023-02-15T16:19:59;11.60;1.00
22578;DHT22;11455;52.390;13.028;2023-02-15T16:22:26;11.50;1.00
22578;DHT22;11455;52.390;13.028;2023-02-15T16:27:38;11.30;1.00
22578;DHT22;11455;52.390;13.028;2023-02-15T16:32:47;11.10;1.00
22578;DHT22;11455;52.390;13.028;2023-02-15T16:35:16;11.10;1.00
22578;DHT22;11455;52.390;13.028;2023-02-15T16:37:42;11.00;1.00
22578;DHT22;11455;52.390;13.028;2023-02-15T16:40:25;10.90;1.00
22578;DHT22;11455;52.390;13.028;2023-02-15T16:42:52;10.80;1.00
22578;DHT22;11455;52.390;13.028;2023-02-15T16:45:19;10.60;1.00
22578;DHT22;11455;52.390;13.028;2023-02-15T16:47:46;10.30;1.00
22578;DHT22;11455;52.390;13.028;2023-02-15T16:50:19;10.20;1.00
22578;DHT22;11455;52.390;13.028;2023-02-15T16:52:46;10.00;10.30
22578;DHT22;11455;52.390;13.028;2023-02-15T16:55:19;9.80;40.50
22578;DHT22;11455;52.390;13.028;2023-02-15T16:57:46;9.70;67.80
22578;DHT22;11455;52.390;13.028;2023-02-15T17:00:17;9.60;90.20
22578;DHT22;11455;52.390;13.028;2023-02-15T17:02:52;9.60;86.30
22578;DHT22;11455;52.390;13.028;2023-02-15T17:05:18;9.50;94.80
22578;DHT22;11455;52.390;13.028;2023-02-15T17:08:02;9.50;99.90
22578;DHT22;11455;52.390;13.028;2023-02-15T17:10:37;9.50;99.90
22578;DHT22;11455;52.390;13.028;2023-02-15T17:13:13;9.40;99.90
22578;DHT22;11455;52.390;13.028;2023-02-15T17:15:43;9.30;99.90
22578;DHT22;11455;52.390;13.028;2023-02-15T17:18:16;9.30;99.90
22578;DHT22;11455;52.390;13.028;2023-02-15T17:20:43;9.30;99.90
22578;DHT22;11455;52.390;13.028;2023-02-15T17:23:29;9.20;99.90
22578;DHT22;11455;52.390;13.028;2023-02-15T17:25:57;9.20;99.90
22578;DHT22;11455;52.390;13.028;2023-02-15T17:28:26;9.20;99.90
22578;DHT22;11455;52.390;13.028;2023-02-15T17:30:53;9.10;99.90
22578;DHT22;11455;52.390;13.028;2023-02-15T17:33:23;9.10;99.90
22578;DHT22;11455;52.390;13.028;2023-02-15T17:36:16;9.10;99.90
22578;DHT22;11455;52.390;13.028;2023-02-15T17:41:26;9.00;99.90
22578;DHT22;11455;52.390;13.028;2023-02-15T17:43:51;9.00;99.90
22578;DHT22;11455;52.390;13.028;2023-02-15T17:46:17;9.00;99.90
22578;DHT22;11455;52.390;13.028;2023-02-15T17:48:50;8.90;99.90
22578;DHT22;11455;52.390;13.028;2023-02-15T17:51:16;8.80;99.90
22578;DHT22;11455;52.390;13.028;2023-02-15T17:53:43;8.80;99.90
22578;DHT22;11455;52.390;13.028;2023-02-15T17:56:27;8.70;99.90
22578;DHT22;11455;52.390;13.028;2023-02-15T17:58:53;8.70;99.90
22578;DHT22;11455;52.390;13.028;2023-02-15T18:01:19;8.70;99.90
22578;DHT22;11455;52.390;13.028;2023-02-15T18:04:04;8.70;99.90
22578;DHT22;11455;52.390;13.028;2023-02-15T18:06:51;8.60;99.90
22578;DHT22;11455;52.390;13.028;2023-02-15T18:09:35;8.50;99.90
22578;DHT22;11455;52.390;13.028;2023-02-15T18:12:26;8.50;99.90
22578;DHT22;11455;52.390;13.028;2023-02-15T18:14:55;8.50;99.90
22578;DHT22;11455;52.390;13.028;2023-02-15T18:17:26;8.40;99.90
22578;DHT22;11455;52.390;13.028;2023-02-15T18:19:52;8.40;99.90
22578;DHT22;11455;52.390;13.028;2023-02-15T18:22:18;8.40;99.90
22578;DHT22;11455;52.390;13.028;2023-02-15T18:24:44;8.50;99.90
22578;DHT22;11455;52.390;13.028;2023-02-15T18:27:11;8.50;99.90
22578;DHT22;11455;52.390;13.028;2023-02-15T18:29:37;8.50;99.90
22578;DHT22;11455;52.390;13.028;2023-02-15T18:32:03;8.40;99.90
22578;DHT22;11455;52.390;13.028;2023-02-15T18:34:35;8.50;99.90
22578;DHT22;11455;52.390;13.028;2023-02-15T18:37:03;8.40;99.90
22578;DHT22;11455;52.390;13.028;2023-02-15T18:39:40;8.40;99.90